Time;durP1;ratioP1;P1;durP2;ratioP2;P2;SDS_P1;SDS_P2;PMS_P1;PMS_P2;Temp;Humidity;BMP_temperature;BMP_pressure;BME280_temperature;BME280_humidity;BME280_pressure;Samples;Min_cycle;Max_cycle;Signal;HPM_P1;HPM_P2
2022/08/14 00:00:27;;;;;;;8.77;6.90;;;24.60;85.00;;;;;;5051250;28;20538;-50
2022/08/14 00:02:54;;;;;;;7.53;6.83;;;24.40;84.80;;;;;;5051534;28;20430;-49
2022/08/14 00:05:22;;;;;;;8.00;7.30;;;24.50;85.20;;;;;;5051579;28;20486;-50
2022/08/14 00:07:49;;;;;;;7.63;7.00;;;24.50;85.40;;;;;;5051464;28;20823;-49
2022/08/14 00:10:19;;;;;;;6.90;6.20;;;24.50;85.50;;;;;;5051269;28;20909;-50
2022/08/14 00:12:49;;;;;;;14.83;7.20;;;24.50;85.80;;;;;;5051237;28;20529;-49
2022/08/14 00:15:18;;;;;;;7.60;6.63;;;24.50;85.80;;;;;;5049929;28;20453;-49
2022/08/14 00:18:04;;;;;;;8.00;7.20;;;24.40;86.10;;;;;;5051094;28;20537;-49
2022/08/14 00:20:34;;;;;;;7.50;6.90;;;24.40;86.30;;;;;;5051209;28;20922;-49
2022/08/14 00:23:01;;;;;;;7.80;7.10;;;24.30;86.20;;;;;;5051488;28;20743;-50
2022/08/14 00:25:29;;;;;;;9.03;7.00;;;24.30;86.30;;;;;;5051151;28;20469;-48
2022/08/14 00:27:56;;;;;;;9.60;8.40;;;24.30;86.30;;;;;;5050991;28;20445;-50
2022/08/14 00:30:23;;;;;;;8.33;7.53;;;24.30;86.40;;;;;;5051025;28;20528;-48
2022/08/14 00:32:49;;;;;;;12.50;7.57;;;24.30;86.60;;;;;;5051368;28;20465;-49
2022/08/14 00:35:16;;;;;;;8.80;8.00;;;24.30;86.80;;;;;;5050105;28;20876;-49
2022/08/14 00:37:45;;;;;;;7.77;6.70;;;24.20;86.80;;;;;;5050888;28;20452;-49
2022/08/14 00:40:14;;;;;;;8.37;6.83;;;24.20;87.00;;;;;;5050906;28;20809;-48
2022/08/14 00:42:42;;;;;;;8.20;7.50;;;24.20;87.30;;;;;;5051498;28;20438;-49
2022/08/14 00:45:11;;;;;;;7.97;7.17;;;24.10;87.40;;;;;;5050933;28;20500;-49
2022/08/14 00:47:38;;;;;;;8.00;7.20;;;24.10;87.50;;;;;;5049631;28;21019;-48
2022/08/14 00:50:07;;;;;;;8.60;7.70;;;24.10;87.70;;;;;;5050862;28;20434;-49
2022/08/14 00:52:34;;;;;;;8.60;7.67;;;24.10;87.90;;;;;;5051335;28;20432;-49
2022/08/14 00:55:01;;;;;;;8.43;7.63;;;24.10;88.00;;;;;;5051232;28;20463;-49
2022/08/14 00:57:30;;;;;;;8.00;7.30;;;24.00;88.10;;;;;;5051147;28;20965;-49
2022/08/14 00:59:59;;;;;;;9.90;7.93;;;24.00;88.20;;;;;;5050583;28;20441;-49
2022/08/14 01:02:27;;;;;;;10.83;7.53;;;24.00;88.50;;;;;;5051105;28;20510;-49
2022/08/14 01:04:56;;;;;;;7.53;6.83;;;24.00;88.60;;;;;;5051200;28;20544;-51
2022/08/14 01:07:24;;;;;;;8.00;7.30;;;23.90;88.70;;;;;;5050667;28;20453;-48
2022/08/14 01:09:53;;;;;;;7.87;6.60;;;23.90;88.90;;;;;;5050422;28;20438;-48
2022/08/14 01:12:21;;;;;;;8.33;6.90;;;23.80;88.90;;;;;;5049842;28;20448;-49
2022/08/14 01:14:50;;;;;;;9.60;7.90;;;23.90;89.20;;;;;;5050923;28;20438;-49
2022/08/14 01:17:19;;;;;;;9.50;8.40;;;23.90;89.30;;;;;;5050642;28;20958;-49
2022/08/14 01:22:32;;;;;;;7.93;7.23;;;23.90;89.60;;;;;;5051119;28;20459;-49
2022/08/14 01:24:59;;;;;;;8.43;7.63;;;23.90;89.80;;;;;;5050920;28;20996;-49
2022/08/14 01:27:27;;;;;;;9.87;7.80;;;23.90;89.90;;;;;;5050799;28;20463;-48
2022/08/14 01:29:57;;;;;;;8.40;7.60;;;23.90;90.00;;;;;;5050421;28;20793;-48
2022/08/14 01:32:24;;;;;;;7.60;6.80;;;23.50;89.80;;;;;;5051055;28;20445;-49
2022/08/14 01:34:52;;;;;;;9.33;7.53;;;23.90;90.20;;;;;;5050851;28;20433;-49
2022/08/14 01:37:21;;;;;;;8.23;7.43;;;23.60;90.10;;;;;;5050687;28;20452;-49
2022/08/14 01:39:50;;;;;;;8.10;7.30;;;23.60;90.10;;;;;;5052184;28;20481;-49
2022/08/14 01:42:16;;;;;;;7.87;7.07;;;23.80;90.20;;;;;;5054212;28;20447;-50
2022/08/14 01:44:43;;;;;;;8.27;7.57;;;23.90;90.30;;;;;;5054228;28;20472;-49
2022/08/14 01:47:12;;;;;;;8.67;7.83;;;23.90;90.30;;;;;;5053971;28;20453;-50
2022/08/14 01:49:40;;;;;;;8.00;7.30;;;23.90;90.40;;;;;;5053817;28;20437;-49
2022/08/14 01:52:07;;;;;;;9.67;8.70;;;23.90;90.40;;;;;;5054219;28;20433;-50
2022/08/14 01:54:35;;;;;;;8.67;7.50;;;23.90;90.50;;;;;;5054118;28;20475;-49
2022/08/14 01:57:03;;;;;;;7.33;6.70;;;23.90;90.40;;;;;;5054109;28;20463;-49
2022/08/14 01:59:31;;;;;;;8.30;7.50;;;23.90;90.50;;;;;;5054361;28;20520;-49
2022/08/14 02:02:02;;;;;;;9.17;8.07;;;23.90;90.50;;;;;;5054060;28;20442;-49
2022/08/14 02:04:30;;;;;;;7.50;6.90;;;24.20;90.80;;;;;;5054067;28;20940;-49
2022/08/14 02:06:57;;;;;;;9.03;8.23;;;23.90;90.60;;;;;;5053769;28;20461;-50
2022/08/14 02:09:24;;;;;;;8.33;7.63;;;23.90;90.60;;;;;;5053432;28;20456;-49
2022/08/14 02:11:52;;;;;;;8.23;7.43;;;23.90;90.70;;;;;;5053562;28;20437;-49
2022/08/14 02:14:21;;;;;;;8.87;8.00;;;23.90;90.80;;;;;;5053595;28;20437;-49
2022/08/14 02:16:51;;;;;;;8.77;8.07;;;23.90;90.70;;;;;;5053528;28;20442;-50
2022/08/14 02:19:21;;;;;;;9.23;8.00;;;23.90;90.80;;;;;;5053473;28;20464;-49
2022/08/14 02:21:51;;;;;;;9.17;8.37;;;23.90;90.90;;;;;;5053772;28;20462;-50
2022/08/14 02:24:19;;;;;;;9.60;8.67;;;23.80;90.90;;;;;;5053442;28;20442;-49
2022/08/14 02:26:48;;;;;;;8.87;8.17;;;23.90;91.00;;;;;;5053675;28;20507;-49
2022/08/14 02:29:18;;;;;;;8.57;7.73;;;23.90;91.00;;;;;;5053223;28;20486;-50
2022/08/14 02:31:48;;;;;;;9.00;8.27;;;23.90;91.00;;;;;;5052847;28;20841;-50
2022/08/14 02:34:18;;;;;;;8.40;7.80;;;23.70;91.00;;;;;;5053265;28;20460;-49
2022/08/14 02:36:47;;;;;;;10.30;9.30;;;23.90;91.10;;;;;;5053083;28;20430;-49
2022/08/14 02:39:15;;;;;;;9.83;8.20;;;23.80;91.10;;;;;;5052965;28;20504;-49
2022/08/14 02:41:42;;;;;;;9.47;8.67;;;23.90;91.20;;;;;;5053617;28;20464;-50
2022/08/14 02:44:12;;;;;;;8.60;7.90;;;23.90;91.20;;;;;;5053093;28;20468;-49
2022/08/14 02:46:39;;;;;;;9.57;8.77;;;23.70;91.10;;;;;;5052434;28;20822;-49
2022/08/14 02:49:07;;;;;;;8.70;7.90;;;23.90;91.30;;;;;;5052919;28;20891;-49
2022/08/14 02:51:35;;;;;;;9.47;8.30;;;23.90;91.40;;;;;;5052048;28;20446;-49
2022/08/14 02:54:02;;;;;;;7.83;7.23;;;23.80;91.40;;;;;;5052963;28;20491;-49
2022/08/14 02:56:29;;;;;;;9.40;8.60;;;23.70;91.40;;;;;;5053000;28;20437;-50
2022/08/14 02:59:00;;;;;;;9.23;8.40;;;23.90;91.60;;;;;;5052661;28;20457;-49
2022/08/14 03:01:27;;;;;;;8.93;8.13;;;23.80;91.50;;;;;;5051614;28;20780;-49
2022/08/14 03:03:55;;;;;;;12.40;8.80;;;23.90;91.70;;;;;;5052699;28;20471;-50
2022/08/14 03:06:24;;;;;;;16.07;9.30;;;23.90;91.80;;;;;;5052761;28;20518;-50
2022/08/14 03:08:51;;;;;;;10.30;8.70;;;23.80;91.80;;;;;;5052182;28;20454;-49
2022/08/14 03:11:20;;;;;;;9.50;8.57;;;23.80;91.80;;;;;;5052768;28;20434;-49
2022/08/14 03:13:50;;;;;;;8.97;8.13;;;23.80;91.90;;;;;;5052679;28;20527;-50
2022/08/14 03:16:23;;;;;;;9.87;8.97;;;23.80;92.00;;;;;;5052792;28;20466;-49
2022/08/14 03:18:52;;;;;;;10.63;9.73;;;23.80;92.10;;;;;;5052014;28;20476;-49
2022/08/14 03:21:21;;;;;;;9.67;8.80;;;23.60;92.10;;;;;;5052582;28;20933;-49
2022/08/14 03:23:55;;;;;;;10.40;9.60;;;23.70;92.50;;;;;;5052436;28;20437;-50
2022/08/14 03:26:24;;;;;;;10.70;9.30;;;23.70;92.60;;;;;;5052430;28;20476;-49
2022/08/14 03:28:51;;;;;;;11.10;10.20;;;23.40;92.50;;;;;;5051989;28;20451;-49
2022/08/14 03:31:22;;;;;;;10.77;9.80;;;23.70;92.80;;;;;;5052302;28;20801;-49
2022/08/14 03:33:50;;;;;;;14.57;8.17;;;23.60;92.90;;;;;;5052409;28;20440;-48
2022/08/14 03:36:19;;;;;;;10.50;9.37;;;23.50;92.80;;;;;;5052128;28;20817;-51
2022/08/14 03:38:49;;;;;;;9.87;8.97;;;23.60;93.00;;;;;;5051765;28;20992;-49
2022/08/14 03:41:19;;;;;;;9.13;8.43;;;23.60;93.10;;;;;;5052147;28;20444;-49
2022/08/14 03:43:47;;;;;;;11.57;10.40;;;23.60;93.20;;;;;;5052096;28;20787;-49
2022/08/14 03:46:14;;;;;;;9.77;9.00;;;23.60;93.20;;;;;;5050728;28;20472;-49
2022/08/14 03:48:42;;;;;;;10.13;9.20;;;23.60;93.30;;;;;;5051469;28;20462;-49
2022/08/14 03:51:10;;;;;;;10.20;9.30;;;23.60;93.50;;;;;;5051906;28;20447;-49
2022/08/14 03:53:40;;;;;;;11.20;9.97;;;23.60;93.50;;;;;;5051953;28;20437;-49
2022/08/14 03:56:11;;;;;;;12.13;10.23;;;23.60;93.70;;;;;;5051985;28;20528;-48
2022/08/14 03:58:42;;;;;;;10.07;9.27;;;23.60;93.70;;;;;;5051480;28;20456;-49
2022/08/14 04:01:09;;;;;;;10.07;9.17;;;23.60;93.80;;;;;;5051860;28;20954;-49
2022/08/14 04:03:35;;;;;;;10.33;9.43;;;23.50;93.90;;;;;;5051737;28;20491;-49
2022/08/14 04:06:03;;;;;;;10.37;9.37;;;23.50;94.00;;;;;;5051602;28;20479;-49
2022/08/14 04:08:29;;;;;;;10.97;9.87;;;23.50;94.00;;;;;;5051262;28;20499;-49
2022/08/14 04:10:58;;;;;;;10.70;9.80;;;23.50;94.10;;;;;;5051837;28;20439;-49
2022/08/14 04:13:24;;;;;;;10.80;9.20;;;23.40;94.20;;;;;;5051705;28;20434;-49
2022/08/14 04:15:52;;;;;;;10.87;9.97;;;23.20;94.20;;;;;;5051521;28;20443;-49
2022/08/14 04:18:19;;;;;;;10.03;8.70;;;23.40;94.30;;;;;;5051889;28;20474;-49
2022/08/14 04:20:46;;;;;;;9.43;8.50;;;23.50;94.50;;;;;;5051180;28;20438;-49
2022/08/14 04:23:12;;;;;;;9.67;8.77;;;23.40;94.40;;;;;;5051542;28;20432;-48
2022/08/14 04:25:39;;;;;;;10.93;9.80;;;23.60;94.60;;;;;;5051492;28;20485;-49
2022/08/14 04:28:08;;;;;;;10.90;9.97;;;23.50;94.60;;;;;;5051394;28;20452;-49
2022/08/14 04:30:38;;;;;;;10.73;9.63;;;23.50;94.60;;;;;;5051462;28;20447;-49
2022/08/14 04:33:07;;;;;;;9.90;9.00;;;23.50;94.80;;;;;;5051667;28;20438;-49
2022/08/14 04:35:34;;;;;;;10.47;9.50;;;23.30;94.60;;;;;;5051633;28;20920;-49
2022/08/14 04:43:38;;;;;;;11.50;10.43;;;23.50;94.90;;;;;;5051724;28;20445;-48
2022/08/14 04:46:07;;;;;;;9.67;8.87;;;23.40;94.80;;;;;;5052348;28;20486;-49
2022/08/14 04:48:35;;;;;;;10.70;9.70;;;23.60;95.00;;;;;;5050692;28;20472;-48
2022/08/14 04:51:02;;;;;;;11.50;10.40;;;23.60;95.10;;;;;;5052969;28;20538;-48
2022/08/14 04:53:30;;;;;;;11.17;10.10;;;23.60;95.20;;;;;;5052615;28;20432;-49
2022/08/14 04:55:57;;;;;;;10.93;9.57;;;23.70;95.30;;;;;;5051286;28;20470;-49
2022/08/14 04:58:26;;;;;;;10.07;9.17;;;23.60;95.30;;;;;;5050918;28;20459;-48
2022/08/14 05:00:55;;;;;;;11.40;10.10;;;23.40;95.20;;;;;;5051222;28;20925;-49
2022/08/14 05:03:25;;;;;;;11.90;10.70;;;23.70;95.30;;;;;;5051068;28;20427;-49
2022/08/14 05:05:55;;;;;;;11.07;9.93;;;23.70;95.30;;;;;;5051013;28;20476;-49
2022/08/14 05:08:23;;;;;;;11.03;9.97;;;23.80;95.20;;;;;;5051042;28;20444;-49
2022/08/14 05:10:51;;;;;;;15.70;10.50;;;23.90;95.10;;;;;;5051032;28;20464;-50
2022/08/14 05:13:20;;;;;;;11.10;9.97;;;23.90;95.00;;;;;;5051596;28;20438;-49
2022/08/14 05:15:47;;;;;;;13.30;9.47;;;24.00;94.80;;;;;;5054810;28;20436;-50
2022/08/14 05:18:16;;;;;;;11.47;10.37;;;24.10;94.70;;;;;;5054843;28;20515;-50
2022/08/14 05:20:45;;;;;;;10.30;9.50;;;24.10;94.40;;;;;;5054524;28;20438;-49
2022/08/14 05:23:15;;;;;;;11.93;10.10;;;24.20;94.30;;;;;;5054785;28;20546;-49
2022/08/14 05:25:42;;;;;;;10.90;9.90;;;24.20;94.20;;;;;;5054446;28;20802;-49
2022/08/14 05:28:11;;;;;;;10.47;9.67;;;24.30;94.20;;;;;;5054939;28;20460;-49
2022/08/14 05:30:38;;;;;;;9.80;9.07;;;24.40;94.00;;;;;;5054705;28;20454;-49
2022/08/14 05:33:05;;;;;;;10.43;9.53;;;24.40;93.80;;;;;;5054611;28;20438;-49
2022/08/14 05:35:32;;;;;;;10.20;8.83;;;24.50;93.70;;;;;;5054551;28;20852;-49
2022/08/14 05:37:59;;;;;;;10.93;9.93;;;24.40;93.50;;;;;;5054756;28;20462;-49
2022/08/14 05:40:27;;;;;;;10.40;9.30;;;24.60;93.40;;;;;;5054199;28;20503;-49
2022/08/14 05:42:54;;;;;;;11.13;10.00;;;24.70;93.40;;;;;;5054599;28;21015;-49
2022/08/14 05:45:21;;;;;;;10.77;9.77;;;24.80;93.20;;;;;;5054277;28;20450;-49
2022/08/14 05:47:47;;;;;;;10.73;9.30;;;24.90;93.00;;;;;;5054302;28;21046;-49
2022/08/14 05:50:14;;;;;;;10.90;10.00;;;25.00;92.90;;;;;;5054140;28;20908;-48
2022/08/14 05:52:41;;;;;;;10.23;9.43;;;25.00;92.70;;;;;;5054367;28;20444;-48
2022/08/14 05:55:10;;;;;;;10.50;9.70;;;25.00;92.60;;;;;;5054065;28;20430;-48
2022/08/14 05:57:49;;;;;;;11.13;10.13;;;25.00;92.40;;;;;;5054225;28;20461;-49
2022/08/14 06:00:19;;;;;;;9.97;9.13;;;25.20;92.20;;;;;;5053773;28;20430;-49
2022/08/14 06:02:46;;;;;;;10.83;9.83;;;25.20;92.10;;;;;;5054019;28;20789;-49
2022/08/14 06:05:13;;;;;;;9.57;8.77;;;25.30;91.90;;;;;;5053966;28;20433;-49
2022/08/14 06:07:39;;;;;;;12.10;10.17;;;25.30;91.80;;;;;;5053705;28;20482;-49
2022/08/14 06:10:09;;;;;;;9.47;8.77;;;25.40;91.70;;;;;;5053598;28;20434;-49
2022/08/14 06:12:35;;;;;;;10.30;9.50;;;25.50;91.50;;;;;;5053903;28;20426;-49
2022/08/14 06:15:05;;;;;;;9.93;9.07;;;25.70;91.40;;;;;;5053696;28;20488;-49
2022/08/14 06:17:32;;;;;;;10.57;9.60;;;25.80;91.10;;;;;;5053657;28;20493;-49
2022/08/14 06:19:59;;;;;;;10.93;9.90;;;25.80;90.80;;;;;;5053266;28;20438;-49
2022/08/14 06:22:26;;;;;;;10.63;9.60;;;25.90;90.70;;;;;;5053586;28;20529;-49
2022/08/14 06:24:52;;;;;;;10.03;9.13;;;25.90;90.50;;;;;;5053758;28;20442;-49
2022/08/14 06:27:19;;;;;;;10.47;9.57;;;26.00;90.40;;;;;;5053704;28;20571;-49
2022/08/14 06:29:46;;;;;;;11.47;10.37;;;26.10;90.30;;;;;;5053286;28;20484;-49
2022/08/14 06:32:14;;;;;;;9.97;9.07;;;26.10;90.20;;;;;;5053471;28;20438;-48
2022/08/14 06:34:40;;;;;;;10.23;9.43;;;26.20;90.00;;;;;;5053484;28;20437;-49
2022/08/14 06:37:07;;;;;;;10.03;9.23;;;26.20;89.90;;;;;;5053292;28;20450;-49
2022/08/14 06:39:33;;;;;;;9.77;8.97;;;26.20;89.10;;;;;;5053308;28;20438;-49
2022/08/14 06:42:00;;;;;;;10.07;9.27;;;26.20;88.90;;;;;;5053302;28;20475;-49
2022/08/14 06:44:27;;;;;;;10.00;9.07;;;26.20;88.30;;;;;;5053282;28;20431;-48
2022/08/14 06:46:54;;;;;;;8.90;8.10;;;26.30;87.90;;;;;;5052853;28;20849;-50
2022/08/14 06:49:22;;;;;;;10.10;9.30;;;26.30;87.80;;;;;;5052713;28;20426;-49
2022/08/14 06:51:49;;;;;;;17.63;9.67;;;26.40;87.70;;;;;;5053097;28;20438;-51
2022/08/14 06:54:15;;;;;;;9.90;8.60;;;26.40;87.50;;;;;;5053148;28;20431;-49
2022/08/14 06:56:42;;;;;;;12.67;10.10;;;26.40;87.40;;;;;;5052798;28;20437;-49
2022/08/14 06:59:08;;;;;;;13.80;9.03;;;26.50;87.10;;;;;;5052670;28;20435;-49
2022/08/14 07:07:05;;;;;;;9.83;8.93;;;26.60;86.10;;;;;;5052678;28;20954;-49
2022/08/14 07:09:31;;;;;;;10.37;9.43;;;26.40;85.70;;;;;;5052225;28;20594;-49
2022/08/14 07:11:58;;;;;;;8.67;7.90;;;26.60;85.50;;;;;;5052554;28;20434;-49
2022/08/14 07:14:25;;;;;;;9.30;8.40;;;26.70;85.40;;;;;;5052745;28;20457;-49
2022/08/14 07:16:52;;;;;;;10.67;9.57;;;26.70;84.90;;;;;;5052122;28;20438;-49
2022/08/14 07:19:20;;;;;;;12.47;9.97;;;26.80;84.80;;;;;;5051956;28;20935;-49
2022/08/14 07:21:46;;;;;;;9.80;8.80;;;26.80;84.60;;;;;;5052218;28;20794;-50
2022/08/14 07:24:15;;;;;;;9.30;8.50;;;26.80;84.40;;;;;;5052252;28;20437;-49
2022/08/14 07:26:41;;;;;;;8.87;8.17;;;26.80;84.40;;;;;;5051853;28;20478;-50
2022/08/14 07:29:08;;;;;;;9.90;8.90;;;26.80;84.50;;;;;;5052044;28;20438;-49
2022/08/14 07:31:34;;;;;;;9.93;9.00;;;26.90;84.40;;;;;;5052197;28;20538;-49
2022/08/14 07:34:01;;;;;;;12.53;9.30;;;26.90;83.80;;;;;;5052073;28;20791;-49
2022/08/14 07:36:28;;;;;;;9.80;8.90;;;27.00;83.80;;;;;;5051390;28;20459;-49
2022/08/14 07:38:54;;;;;;;9.87;8.30;;;27.00;83.50;;;;;;5051738;28;20450;-49
2022/08/14 07:41:22;;;;;;;9.17;8.47;;;27.10;83.30;;;;;;5052192;28;20445;-49
2022/08/14 07:43:49;;;;;;;10.50;9.40;;;27.10;82.60;;;;;;5052337;28;20434;-49
2022/08/14 07:46:16;;;;;;;9.53;8.73;;;27.00;82.30;;;;;;5051795;28;20954;-49
2022/08/14 07:48:43;;;;;;;7.80;7.20;;;27.00;82.30;;;;;;5051773;28;20447;-49
2022/08/14 07:51:10;;;;;;;8.33;7.53;;;27.10;82.30;;;;;;5051904;28;20470;-49
2022/08/14 07:53:37;;;;;;;10.90;9.20;;;27.20;81.20;;;;;;5051796;28;20492;-51
2022/08/14 07:56:04;;;;;;;9.50;8.60;;;27.30;80.50;;;;;;5051721;28;20442;-50
2022/08/14 07:58:32;;;;;;;9.77;8.57;;;27.30;80.00;;;;;;5051417;28;20452;-49
2022/08/14 08:00:59;;;;;;;9.43;8.47;;;27.30;79.90;;;;;;5051775;28;20496;-50
2022/08/14 08:03:26;;;;;;;8.70;7.90;;;27.30;79.70;;;;;;5052209;28;20436;-49
2022/08/14 08:05:53;;;;;;;8.10;7.37;;;27.40;79.80;;;;;;5051599;28;20450;-50
2022/08/14 08:08:21;;;;;;;8.57;7.77;;;27.40;79.80;;;;;;5051676;28;20486;-49
2022/08/14 08:10:48;;;;;;;8.87;7.97;;;27.40;79.60;;;;;;5051350;28;20490;-49
2022/08/14 08:13:17;;;;;;;9.80;8.30;;;27.40;79.10;;;;;;5051611;28;20521;-50
2022/08/14 08:15:47;;;;;;;10.40;7.90;;;27.20;78.70;;;;;;5051243;28;20439;-50
2022/08/14 08:18:16;;;;;;;11.57;8.20;;;27.50;78.80;;;;;;5050948;28;20567;-50
2022/08/14 08:20:44;;;;;;;9.63;8.60;;;27.50;78.60;;;;;;5050942;28;20438;-50
2022/08/14 08:23:12;;;;;;;10.30;8.50;;;27.60;78.40;;;;;;5051327;28;20476;-50
2022/08/14 08:25:41;;;;;;;14.17;8.40;;;27.60;78.30;;;;;;5051264;28;20434;-50
2022/08/14 08:28:10;;;;;;;12.67;9.00;;;27.50;78.10;;;;;;5051056;28;21005;-50
2022/08/14 08:30:40;;;;;;;8.93;8.00;;;27.70;78.10;;;;;;5050948;28;20793;-50
2022/08/14 08:33:10;;;;;;;9.23;8.33;;;27.80;77.70;;;;;;5051211;28;20447;-50
2022/08/14 08:35:38;;;;;;;9.33;8.53;;;27.90;77.60;;;;;;5050971;28;20427;-50
2022/08/14 08:38:07;;;;;;;9.13;8.33;;;27.90;77.40;;;;;;5051071;28;20451;-50
2022/08/14 08:40:37;;;;;;;8.87;7.50;;;27.90;76.60;;;;;;5050733;28;20466;-50
2022/08/14 08:43:06;;;;;;;8.73;7.93;;;27.90;76.40;;;;;;5051011;28;20488;-49
2022/08/14 08:45:33;;;;;;;8.73;7.47;;;28.00;76.10;;;;;;5050882;28;20469;-50
2022/08/14 08:48:00;;;;;;;10.00;7.80;;;28.00;75.90;;;;;;5050889;28;20486;-50
2022/08/14 08:50:31;;;;;;;13.30;7.67;;;28.00;75.50;;;;;;5053960;28;20434;-50
2022/08/14 08:53:00;;;;;;;7.30;6.53;;;28.10;74.90;;;;;;5054526;28;20442;-49
2022/08/14 08:55:30;;;;;;;8.03;7.33;;;28.10;74.50;;;;;;5054955;28;20443;-49
2022/08/14 08:57:58;;;;;;;7.67;7.00;;;28.30;74.50;;;;;;5054767;28;20467;-48
2022/08/14 09:00:26;;;;;;;7.77;7.07;;;28.10;74.30;;;;;;5055117;28;20435;-49
2022/08/14 09:02:58;;;;;;;9.63;6.80;;;28.20;74.10;;;;;;5055148;28;20445;-49
2022/08/14 09:05:26;;;;;;;8.63;7.17;;;28.20;73.80;;;;;;5053700;28;20457;-49
2022/08/14 09:07:54;;;;;;;8.70;6.90;;;28.30;73.50;;;;;;5054513;28;20519;-49
2022/08/14 09:10:20;;;;;;;7.80;7.00;;;28.30;73.20;;;;;;5054178;28;20818;-51
2022/08/14 09:12:47;;;;;;;8.07;6.73;;;28.30;72.90;;;;;;5054527;28;20437;-50
2022/08/14 09:15:14;;;;;;;8.33;6.47;;;28.30;72.70;;;;;;5054460;28;20834;-49
2022/08/14 09:17:42;;;;;;;9.03;7.10;;;28.30;72.70;;;;;;5054582;28;20521;-49
2022/08/14 09:20:09;;;;;;;7.80;6.70;;;28.40;72.60;;;;;;5054264;28;20511;-49
2022/08/14 09:22:36;;;;;;;6.67;6.00;;;28.40;72.50;;;;;;5054478;28;20453;-49
2022/08/14 09:25:06;;;;;;;12.00;6.13;;;28.50;72.30;;;;;;5054661;28;20436;-50
2022/08/14 09:27:33;;;;;;;9.17;6.37;;;28.50;71.90;;;;;;5054303;28;20488;-49
2022/08/14 09:29:59;;;;;;;6.73;6.00;;;28.50;71.70;;;;;;5054357;28;20526;-49
2022/08/14 09:32:35;;;;;;;8.60;5.97;;;28.60;71.30;;;;;;5054436;28;20446;-49
2022/08/14 09:35:12;;;;;;;7.70;5.73;;;28.70;70.90;;;;;;5054636;28;20430;-50
2022/08/14 09:37:48;;;;;;;6.53;5.93;;;28.70;70.40;;;;;;5054736;28;20457;-50
2022/08/14 09:40:25;;;;;;;6.27;5.23;;;28.80;70.10;;;;;;5054160;28;20440;-49
2022/08/14 09:43:03;;;;;;;7.33;5.17;;;28.90;69.20;;;;;;5054215;28;20467;-51
2022/08/14 09:45:36;;;;;;;5.50;5.00;;;28.90;68.20;;;;;;5054103;28;20993;-50
2022/08/14 09:48:14;;;;;;;6.60;5.30;;;29.00;67.30;;;;;;5053956;28;20473;-50
2022/08/14 09:50:46;;;;;;;9.67;5.17;;;29.00;66.70;;;;;;5053973;28;20433;-50
2022/08/14 09:53:16;;;;;;;7.90;5.70;;;29.00;66.90;;;;;;5053946;28;20434;-50
2022/08/14 09:55:45;;;;;;;9.80;4.97;;;29.10;66.10;;;;;;5054204;28;20443;-50
2022/08/14 09:58:14;;;;;;;7.63;5.67;;;29.20;65.80;;;;;;5053770;28;20512;-50
2022/08/14 10:00:46;;;;;;;6.80;4.93;;;29.30;65.50;;;;;;5052974;28;20441;-50
2022/08/14 10:03:24;;;;;;;6.13;4.70;;;29.40;65.00;;;;;;5052326;28;20955;-50
2022/08/14 10:05:50;;;;;;;8.20;4.63;;;29.40;64.60;;;;;;5053992;28;20434;-50
2022/08/14 10:08:20;;;;;;;5.20;4.50;;;29.40;63.90;;;;;;5053234;28;20477;-50
2022/08/14 10:10:48;;;;;;;9.07;4.10;;;29.50;63.20;;;;;;5053308;28;20423;-49
2022/08/14 10:13:23;;;;;;;4.77;3.93;;;29.50;63.00;;;;;;5053532;28;20445;-49
2022/08/14 10:15:50;;;;;;;5.37;4.50;;;29.60;62.80;;;;;;5053303;28;20749;-49
2022/08/14 10:18:20;;;;;;;5.20;4.23;;;29.50;62.70;;;;;;5051806;28;20479;-50
2022/08/14 10:20:54;;;;;;;6.00;4.40;;;29.50;62.70;;;;;;5053198;28;20442;-49
2022/08/14 10:23:23;;;;;;;4.90;4.20;;;29.60;62.70;;;;;;5053508;28;20557;-49
2022/08/14 10:25:53;;;;;;;6.73;4.23;;;29.60;62.40;;;;;;5053562;28;20452;-50
2022/08/14 10:28:21;;;;;;;6.37;4.77;;;29.60;62.40;;;;;;5053225;28;20959;-51
2022/08/14 10:30:52;;;;;;;5.73;4.53;;;29.70;61.50;;;;;;5053362;28;20783;-50
2022/08/14 10:33:30;;;;;;;6.00;4.20;;;29.70;60.50;;;;;;5053236;28;20439;-51
2022/08/14 10:35:59;;;;;;;5.70;4.63;;;29.80;59.90;;;;;;5053725;28;20442;-50
2022/08/14 10:38:28;;;;;;;5.53;4.77;;;29.80;60.10;;;;;;5051878;28;20470;-50
2022/08/14 10:40:56;;;;;;;4.33;3.97;;;29.80;59.70;;;;;;5053080;28;20470;-49
2022/08/14 10:43:26;;;;;;;5.47;4.33;;;29.80;59.70;;;;;;5052297;28;20801;-50
2022/08/14 10:45:56;;;;;;;5.13;4.63;;;29.90;59.80;;;;;;5052988;28;20496;-49
2022/08/14 10:48:23;;;;;;;6.90;3.90;;;29.90;59.60;;;;;;5052432;28;20475;-49
2022/08/14 10:50:52;;;;;;;6.73;4.90;;;29.90;59.70;;;;;;5052874;28;20935;-49
2022/08/14 10:53:35;;;;;;;4.73;4.33;;;30.00;59.70;;;;;;5053248;28;20438;-49
2022/08/14 10:56:09;;;;;;;4.90;4.20;;;30.00;59.20;;;;;;5052207;28;20431;-50
2022/08/14 10:58:36;;;;;;;5.70;4.63;;;30.00;59.20;;;;;;5050883;28;20470;-50
2022/08/14 11:01:04;;;;;;;5.60;5.03;;;30.00;59.00;;;;;;5052789;28;20427;-50
2022/08/14 11:03:39;;;;;;;5.83;4.90;;;30.00;58.60;;;;;;5052709;28;20537;-50
2022/08/14 11:06:19;;;;;;;5.60;5.10;;;30.10;58.40;;;;;;5052777;28;20438;-50
2022/08/14 11:08:47;;;;;;;5.50;4.53;;;30.10;58.00;;;;;;5051669;28;20506;-50
2022/08/14 11:11:16;;;;;;;4.63;4.23;;;30.10;57.80;;;;;;5051924;28;20465;-50
2022/08/14 11:13:45;;;;;;;8.00;4.80;;;30.10;58.10;;;;;;5052157;28;20462;-51
2022/08/14 11:16:13;;;;;;;5.20;4.30;;;30.10;58.20;;;;;;5052505;28;20431;-50
2022/08/14 11:18:45;;;;;;;7.47;4.40;;;30.10;58.20;;;;;;5052013;28;20462;-50
2022/08/14 11:21:16;;;;;;;7.30;5.00;;;30.20;58.30;;;;;;5051947;28;20435;-51
2022/08/14 11:23:45;;;;;;;6.30;5.13;;;30.20;58.30;;;;;;5052261;28;20530;-51
2022/08/14 11:26:17;;;;;;;5.43;4.50;;;30.20;58.30;;;;;;5052114;28;20438;-50
2022/08/14 11:28:46;;;;;;;4.57;4.17;;;30.20;58.20;;;;;;5051520;28;20478;-50
2022/08/14 11:31:13;;;;;;;5.40;4.83;;;30.20;58.10;;;;;;5051027;28;20808;-50
2022/08/14 11:33:41;;;;;;;8.00;5.57;;;30.20;57.80;;;;;;5051979;28;20435;-50
2022/08/14 11:36:10;;;;;;;4.80;4.40;;;30.20;57.60;;;;;;5052067;28;20430;-50
2022/08/14 11:38:37;;;;;;;6.00;4.70;;;30.30;57.70;;;;;;5051513;28;20442;-50
2022/08/14 11:41:04;;;;;;;9.70;4.50;;;30.20;56.70;;;;;;5052084;28;20805;-50
2022/08/14 11:43:39;;;;;;;5.77;5.20;;;30.20;56.50;;;;;;5051372;28;20439;-49
2022/08/14 11:46:06;;;;;;;6.93;5.20;;;30.10;55.60;;;;;;5052182;28;20533;-49
2022/08/14 11:48:33;;;;;;;4.50;4.20;;;30.10;55.80;;;;;;5051060;28;20475;-49
2022/08/14 11:51:00;;;;;;;7.67;4.50;;;30.00;56.10;;;;;;5051980;28;20435;-50
2022/08/14 11:53:30;;;;;;;7.00;4.70;;;30.10;55.30;;;;;;5051896;28;20439;-50
2022/08/14 11:56:01;;;;;;;7.50;4.87;;;30.00;55.40;;;;;;5052067;28;21006;-50
2022/08/14 11:58:29;;;;;;;5.83;4.80;;;30.00;55.80;;;;;;5049687;28;20475;-50
2022/08/14 12:01:01;;;;;;;8.73;4.83;;;30.00;55.70;;;;;;5051793;28;20671;-51
2022/08/14 12:03:38;;;;;;;8.37;5.40;;;30.00;54.90;;;;;;5051825;28;20561;-50
2022/08/14 12:06:07;;;;;;;6.93;4.80;;;29.90;55.50;;;;;;5051810;28;20442;-49
2022/08/14 12:08:35;;;;;;;6.10;5.23;;;29.90;55.90;;;;;;5051081;28;20474;-50
2022/08/14 12:11:03;;;;;;;7.63;4.83;;;29.90;56.20;;;;;;5051309;28;20870;-50
2022/08/14 12:13:32;;;;;;;8.63;5.20;;;29.90;56.40;;;;;;5051590;28;20516;-50
2022/08/14 12:16:02;;;;;;;6.40;4.70;;;30.00;56.60;;;;;;5051538;28;20431;-50
2022/08/14 12:18:31;;;;;;;6.83;5.63;;;30.00;56.40;;;;;;5050937;28;20466;-50
2022/08/14 12:20:58;;;;;;;7.93;5.20;;;30.00;56.50;;;;;;5050990;28;20426;-50
2022/08/14 12:23:26;;;;;;;7.40;5.47;;;30.00;56.90;;;;;;5051097;28;20427;-49
2022/08/14 12:26:05;;;;;;;5.83;5.23;;;30.00;56.90;;;;;;5050167;28;20435;-50
2022/08/14 12:28:32;;;;;;;5.73;5.23;;;30.10;56.30;;;;;;5049259;28;20498;-50
2022/08/14 12:31:11;;;;;;;6.10;5.50;;;30.10;56.40;;;;;;5051451;28;20431;-50
2022/08/14 12:33:38;;;;;;;5.83;5.13;;;30.10;56.60;;;;;;5051001;28;20545;-49
2022/08/14 12:36:09;;;;;;;5.20;4.80;;;30.10;56.60;;;;;;5050289;28;20442;-50
2022/08/14 12:38:37;;;;;;;6.10;4.60;;;30.20;56.40;;;;;;5051024;28;20454;-51
2022/08/14 12:41:09;;;;;;;10.07;4.77;;;30.30;56.40;;;;;;5051075;28;20496;-49
2022/08/14 12:43:45;;;;;;;4.87;4.40;;;30.40;56.40;;;;;;5050568;28;20435;-49
2022/08/14 12:46:22;;;;;;;7.83;5.83;;;30.50;56.00;;;;;;5051441;28;20970;-50
2022/08/14 12:48:49;;;;;;;8.33;5.30;;;30.50;55.20;;;;;;5050937;28;20490;-50
2022/08/14 12:51:19;;;;;;;7.53;4.43;;;30.60;55.40;;;;;;5051129;28;20473;-50
2022/08/14 12:53:46;;;;;;;6.47;5.70;;;30.60;55.00;;;;;;5050914;28;20444;-51
2022/08/14 12:56:17;;;;;;;6.07;5.37;;;30.60;54.60;;;;;;5051137;28;20437;-51
2022/08/14 12:58:49;;;;;;;7.10;5.50;;;30.70;54.10;;;;;;5050573;28;20455;-48
2022/08/14 13:01:20;;;;;;;5.00;4.50;;;30.70;53.70;;;;;;5051091;28;20437;-50
2022/08/14 13:03:47;;;;;;;6.10;5.50;;;30.70;53.50;;;;;;5051094;28;20485;-52